CYND

Details ICAO CYND (YND)
Name GATINEAU
Region Canada
Timezone America/Montreal (UTC-4.0)
Plans Departing 17
Arriving 20
Stats Elevation 211 ft / 64 m (AMSL)
Location 45.521693° -75.563587°
Runways 1
Magnetic Variation 13.344° W
Sunrise 2018-05-27 09:21:37 UTC / 2018-05-27 05:21:37 Local
Sunset 2018-05-28 00:40:08 UTC / 2018-05-27 20:40:08 Local
Advertisement - Login to hide

Runways

ID Width Length Bearing (true) Bearing (mag) Surface Threshold Offset Overrun Length
09 150 ft / 46 m 5,983 ft / 1,824 m 75.36° 88.70° Asphalt 0 ft / 0 m 200 ft / 61 m
27 150 ft / 46 m 5,983 ft / 1,824 m 255.37° 268.71° Asphalt 0 ft / 0 m 200 ft / 61 m

Map

Weather


0- 5 10 15 20 25 30 35+ Temperature / ° C

Clouds and Precipitation
Forecast for 2018-05-28 00:00 UTC. Updated an hour ago

Ground ~20,000 ft ~40,000 ft Winds

METAR

CYND 280000Z 07009KT 15SM SCT100 BKN200 19/15 A2995 RMK AC4CI3 SLP144 DENSITY ALT 700FT

TAF

TAF AMD CYND 272327Z 2723/2801 08010KT P6SM FEW040 BKN120 TEMPO 2723/2801 P6SM -SHRA BKN040 OVC120 RMK NXT FCST WILL BE ISSUED AT 281245Z

Frequencies

Unicom 122.30 MHz CTAF
Approach 127.70 MHz OTTAWA TRML
Approach 127.70 MHz VFR ADVSY
Tower 122.30 MHz MF
Approach 128.17 MHz OTTAWA TRML
Warning: Do not use this data for real-world aviation or navigation. No guarantee of current accuracy is given.